Time;durP1;ratioP1;P1;durP2;ratioP2;P2;SDS_P1;SDS_P2;PMS_P1;PMS_P2;Temp;Humidity;BMP_temperature;BMP_pressure;BME280_temperature;BME280_humidity;BME280_pressure;Samples;Min_cycle;Max_cycle;Signal;HPM_P1;HPM_P2
2021/11/28 00:01:08;;;;;;;3.88;2.72;;;17.20;58.70;;;;;;5053288;28;20266;-60
2021/11/28 00:03:34;;;;;;;2.92;2.72;;;17.20;58.70;;;;;;5053578;28;20202;-61
2021/11/28 00:06:03;;;;;;;4.35;2.97;;;17.20;58.70;;;;;;5053764;28;20179;-61
2021/11/28 00:11:31;;;;;;;3.88;3.13;;;17.20;58.60;;;;;;5053393;28;20258;-60
2021/11/28 00:16:28;;;;;;;3.58;2.83;;;17.20;58.70;;;;;;5053563;28;20253;-61
2021/11/28 00:18:54;;;;;;;3.45;3.15;;;17.20;58.60;;;;;;5053400;28;20492;-60
2021/11/28 00:21:19;;;;;;;3.20;2.80;;;17.10;58.50;;;;;;5052436;28;20560;-60
2021/11/28 00:23:45;;;;;;;4.47;2.90;;;17.10;58.50;;;;;;5053007;28;20171;-63
2021/11/28 00:26:10;;;;;;;4.45;3.22;;;17.10;58.60;;;;;;5053105;28;20529;-60
2021/11/28 00:28:36;;;;;;;4.43;3.10;;;17.10;58.60;;;;;;5052269;28;20174;-60
2021/11/28 00:31:02;;;;;;;3.13;2.83;;;17.10;58.60;;;;;;5053187;28;20190;-61
2021/11/28 00:33:27;;;;;;;3.20;2.85;;;17.10;58.60;;;;;;5052910;28;20175;-61
2021/11/28 00:35:53;;;;;;;4.07;2.80;;;17.10;58.50;;;;;;5051977;28;20267;-61
2021/11/28 00:38:18;;;;;;;3.83;3.03;;;17.10;58.50;;;;;;5052862;28;20263;-61
2021/11/28 00:40:44;;;;;;;3.78;3.03;;;17.00;58.50;;;;;;5052917;28;20254;-61
2021/11/28 00:43:09;;;;;;;3.28;2.97;;;17.00;58.50;;;;;;5052488;28;20190;-60
2021/11/28 00:45:35;;;;;;;3.22;2.88;;;17.00;58.50;;;;;;5052767;28;20175;-61
2021/11/28 00:48:00;;;;;;;3.20;2.83;;;17.00;58.50;;;;;;5052884;28;20311;-60
2021/11/28 00:50:38;;;;;;;2.95;2.67;;;17.00;58.60;;;;;;5052056;28;20251;-60
2021/11/28 00:53:04;;;;;;;3.45;2.65;;;17.00;58.60;;;;;;5052740;28;20571;-60
2021/11/28 00:55:29;;;;;;;3.15;2.85;;;17.00;58.50;;;;;;5052492;28;20181;-60
2021/11/28 00:57:55;;;;;;;2.80;2.60;;;17.00;58.60;;;;;;5052157;28;20276;-61
2021/11/28 01:00:20;;;;;;;4.28;2.88;;;17.00;58.50;;;;;;5052623;28;20233;-61
2021/11/28 01:02:46;;;;;;;3.47;3.00;;;17.00;58.40;;;;;;5052330;28;20189;-60
2021/11/28 01:05:11;;;;;;;2.92;2.67;;;16.90;58.40;;;;;;5051622;28;20175;-60
2021/11/28 01:07:38;;;;;;;2.85;2.60;;;16.90;58.40;;;;;;5052197;28;20241;-60
2021/11/28 01:10:08;;;;;;;2.95;2.38;;;16.90;58.40;;;;;;5052349;28;20183;-59
2021/11/28 01:12:33;;;;;;;3.42;2.70;;;16.90;58.50;;;;;;5051782;28;20171;-61
2021/11/28 01:14:59;;;;;;;2.58;2.38;;;16.90;58.50;;;;;;5052335;28;20233;-60
2021/11/28 01:17:26;;;;;;;4.32;2.67;;;16.90;58.50;;;;;;5051593;28;20198;-60
2021/11/28 01:19:51;;;;;;;3.08;2.63;;;16.90;58.40;;;;;;5052092;28;20596;-63
2021/11/28 01:22:17;;;;;;;3.17;2.75;;;16.90;58.40;;;;;;5052181;28;20265;-59
2021/11/28 01:24:43;;;;;;;3.22;2.92;;;16.90;58.40;;;;;;5051237;28;20221;-60
2021/11/28 01:27:10;;;;;;;2.60;2.38;;;16.80;58.40;;;;;;5052194;28;20265;-60
2021/11/28 01:29:35;;;;;;;3.08;2.55;;;16.90;58.40;;;;;;5051742;28;20171;-60
2021/11/28 01:32:02;;;;;;;4.20;3.13;;;16.80;58.40;;;;;;5051330;28;20171;-61
2021/11/28 01:34:28;;;;;;;4.78;2.90;;;16.80;58.40;;;;;;5051496;28;20175;-60
2021/11/28 01:36:53;;;;;;;2.80;2.30;;;16.80;58.30;;;;;;5051729;28;20214;-61
2021/11/28 01:39:22;;;;;;;3.20;2.42;;;16.80;58.40;;;;;;5051117;28;20593;-60
2021/11/28 01:41:47;;;;;;;3.17;2.88;;;16.80;58.40;;;;;;5051585;28;20178;-61
2021/11/28 01:44:13;;;;;;;3.15;2.70;;;16.80;58.40;;;;;;5051791;28;20179;-61
2021/11/28 01:46:39;;;;;;;2.95;2.63;;;16.70;58.30;;;;;;5050786;28;20183;-61
2021/11/28 01:49:06;;;;;;;3.35;2.60;;;16.70;58.40;;;;;;5051578;28;20222;-61
2021/11/28 01:51:32;;;;;;;3.40;3.10;;;16.70;58.40;;;;;;5051743;28;20171;-61
2021/11/28 01:53:57;;;;;;;4.10;2.88;;;16.70;58.40;;;;;;5051333;28;20189;-60
2021/11/28 01:56:23;;;;;;;3.63;2.72;;;16.70;58.40;;;;;;5051996;28;20198;-60
2021/11/28 01:58:49;;;;;;;2.60;2.40;;;16.70;58.40;;;;;;5051650;28;20179;-60
2021/11/28 02:01:17;;;;;;;3.63;2.88;;;16.70;58.40;;;;;;5051062;28;20539;-60
2021/11/28 02:03:43;;;;;;;2.67;2.40;;;16.70;58.40;;;;;;5051319;28;20249;-60
2021/11/28 02:06:10;;;;;;;3.33;2.80;;;16.70;58.40;;;;;;5051894;28;20606;-60
2021/11/28 02:08:36;;;;;;;2.42;2.22;;;16.60;58.30;;;;;;5051000;28;20237;-60
2021/11/28 02:11:01;;;;;;;3.85;2.60;;;16.60;58.40;;;;;;5052105;28;20183;-60
2021/11/28 02:13:27;;;;;;;3.35;2.90;;;16.60;58.30;;;;;;5051321;28;20179;-60
2021/11/28 02:15:54;;;;;;;3.08;2.50;;;16.60;58.30;;;;;;5051161;28;20178;-60
2021/11/28 02:18:20;;;;;;;2.53;2.33;;;16.60;58.40;;;;;;5051612;28;20187;-60
2021/11/28 02:20:50;;;;;;;3.13;2.70;;;16.60;58.40;;;;;;5050677;28;20643;-60
2021/11/28 02:23:15;;;;;;;2.75;2.28;;;16.60;58.30;;;;;;5051683;28;20269;-60
2021/11/28 02:25:41;;;;;;;2.40;2.20;;;16.60;58.40;;;;;;5051432;28;20209;-60
2021/11/28 02:28:09;;;;;;;2.63;2.42;;;16.60;58.40;;;;;;5050946;28;20171;-60
2021/11/28 02:30:35;;;;;;;2.72;2.45;;;16.60;58.40;;;;;;5051127;28;20171;-61
2021/11/28 02:33:00;;;;;;;3.15;2.78;;;16.60;58.40;;;;;;5051782;28;20171;-61
2021/11/28 02:35:27;;;;;;;2.63;2.20;;;16.60;58.40;;;;;;5051042;28;20171;-60
2021/11/28 02:37:53;;;;;;;2.70;2.45;;;16.60;58.40;;;;;;5051347;28;20210;-61
2021/11/28 02:40:20;;;;;;;2.80;2.60;;;16.50;58.30;;;;;;5051629;28;20175;-61
2021/11/28 02:42:45;;;;;;;2.95;2.75;;;16.50;58.30;;;;;;5050544;28;20175;-60
2021/11/28 02:45:12;;;;;;;2.83;2.47;;;16.50;58.30;;;;;;5051415;28;20564;-60
2021/11/28 02:47:37;;;;;;;2.67;2.30;;;16.50;58.30;;;;;;5052816;28;20222;-60
2021/11/28 02:50:04;;;;;;;3.70;2.50;;;16.50;58.30;;;;;;5054792;28;20182;-60
2021/11/28 02:52:29;;;;;;;2.75;2.50;;;16.50;58.30;;;;;;5055113;28;20348;-60
2021/11/28 02:54:54;;;;;;;3.20;2.80;;;16.50;58.30;;;;;;5055285;28;20228;-60
2021/11/28 02:57:20;;;;;;;3.28;2.97;;;16.50;58.40;;;;;;5054259;28;20263;-60
2021/11/28 02:59:45;;;;;;;3.15;2.67;;;16.50;58.30;;;;;;5054749;28;20168;-60
2021/11/28 03:02:11;;;;;;;2.83;2.40;;;16.50;58.30;;;;;;5055143;28;20182;-61
2021/11/28 03:04:36;;;;;;;2.83;2.50;;;16.50;58.40;;;;;;5053952;28;20171;-60
2021/11/28 03:07:02;;;;;;;2.40;2.20;;;16.40;58.20;;;;;;5055057;28;20552;-59
2021/11/28 03:09:28;;;;;;;2.67;2.47;;;16.40;58.30;;;;;;5054930;28;20638;-59
2021/11/28 03:11:54;;;;;;;3.15;2.65;;;16.40;58.30;;;;;;5054149;28;20171;-59
2021/11/28 03:14:19;;;;;;;2.90;2.60;;;16.40;58.30;;;;;;5054780;28;20179;-61
2021/11/28 03:16:45;;;;;;;2.92;2.72;;;16.40;58.30;;;;;;5053803;28;20558;-59
2021/11/28 03:19:10;;;;;;;2.60;2.40;;;16.40;58.30;;;;;;5054551;28;20179;-59
2021/11/28 03:21:36;;;;;;;2.95;2.72;;;16.40;58.30;;;;;;5054495;28;20205;-60
2021/11/28 03:24:03;;;;;;;3.40;3.10;;;16.40;58.50;;;;;;5054062;28;20178;-60
2021/11/28 03:26:36;;;;;;;3.13;2.83;;;16.40;58.30;;;;;;5054284;28;20536;-61
2021/11/28 03:29:13;;;;;;;2.92;2.63;;;16.40;58.30;;;;;;5054461;28;20348;-60
2021/11/28 03:31:41;;;;;;;2.80;2.55;;;16.30;58.30;;;;;;5053679;28;20261;-60
2021/11/28 03:34:07;;;;;;;3.63;2.80;;;16.30;58.30;;;;;;5054625;28;20175;-61
2021/11/28 03:36:34;;;;;;;2.80;2.60;;;16.30;58.30;;;;;;5054077;28;20206;-60
2021/11/28 03:38:59;;;;;;;2.65;2.40;;;16.30;58.30;;;;;;5053705;28;20171;-61
2021/11/28 03:41:26;;;;;;;3.47;2.70;;;16.40;58.30;;;;;;5054157;28;20261;-59
2021/11/28 03:43:54;;;;;;;2.88;2.67;;;16.30;58.20;;;;;;5054114;28;20175;-60
2021/11/28 03:46:19;;;;;;;3.45;2.85;;;16.40;58.20;;;;;;5053643;28;20174;-60
2021/11/28 03:48:45;;;;;;;2.83;2.53;;;16.30;58.20;;;;;;5053826;28;20301;-60
2021/11/28 03:51:11;;;;;;;2.83;2.63;;;16.30;58.30;;;;;;5053837;28;20545;-60
2021/11/28 03:53:37;;;;;;;3.05;2.60;;;16.30;58.30;;;;;;5052804;28;20177;-60
2021/11/28 03:56:06;;;;;;;3.17;2.88;;;16.30;58.20;;;;;;5053642;28;20230;-60
2021/11/28 03:58:32;;;;;;;2.55;2.35;;;16.20;58.20;;;;;;5053099;28;20187;-61
2021/11/28 04:00:58;;;;;;;2.80;2.60;;;16.30;58.20;;;;;;5052912;28;20461;-61
2021/11/28 04:03:23;;;;;;;2.65;2.45;;;16.30;58.40;;;;;;5053653;28;20183;-62
2021/11/28 04:05:49;;;;;;;2.95;2.75;;;16.20;58.30;;;;;;5053285;28;20167;-61
2021/11/28 04:08:14;;;;;;;2.70;2.50;;;16.20;58.20;;;;;;5052872;28;20171;-61
2021/11/28 04:10:40;;;;;;;2.78;2.58;;;16.20;58.20;;;;;;5052922;28;20220;-60
2021/11/28 04:13:05;;;;;;;2.65;2.45;;;16.20;58.20;;;;;;5052913;28;20254;-61
2021/11/28 04:15:32;;;;;;;2.60;2.40;;;16.20;58.20;;;;;;5053261;28;20232;-61
2021/11/28 04:17:57;;;;;;;2.65;2.45;;;16.20;58.20;;;;;;5053232;28;20253;-60
2021/11/28 04:20:23;;;;;;;3.05;2.50;;;16.20;58.30;;;;;;5052795;28;20202;-61
2021/11/28 04:22:49;;;;;;;2.70;2.50;;;16.20;58.30;;;;;;5053144;28;20187;-61
2021/11/28 04:25:14;;;;;;;3.67;2.92;;;16.20;58.20;;;;;;5053096;28;20186;-60
2021/11/28 04:27:40;;;;;;;3.47;3.10;;;16.20;58.20;;;;;;5052456;28;20175;-61
2021/11/28 04:30:06;;;;;;;3.53;3.22;;;16.20;58.30;;;;;;5052818;28;20190;-60
2021/11/28 04:32:32;;;;;;;3.22;2.95;;;16.20;58.20;;;;;;5052851;28;20175;-61
2021/11/28 04:34:57;;;;;;;2.95;2.75;;;16.20;58.20;;;;;;5052261;28;20289;-61
2021/11/28 04:37:23;;;;;;;2.70;2.50;;;16.10;58.30;;;;;;5052814;28;20203;-61
2021/11/28 04:39:49;;;;;;;2.42;2.22;;;16.10;58.20;;;;;;5052504;28;20202;-60
2021/11/28 04:42:14;;;;;;;3.50;3.20;;;16.10;58.30;;;;;;5052140;28;20179;-60
2021/11/28 04:44:40;;;;;;;3.10;2.80;;;16.10;58.20;;;;;;5052668;28;20175;-60
2021/11/28 04:47:05;;;;;;;3.35;3.05;;;16.10;58.20;;;;;;5052756;28;20681;-61
2021/11/28 04:49:33;;;;;;;3.35;2.80;;;16.10;58.20;;;;;;5051711;28;20183;-60
2021/11/28 04:51:59;;;;;;;2.90;2.70;;;16.10;58.20;;;;;;5052662;28;20179;-60
2021/11/28 04:54:24;;;;;;;3.35;2.60;;;16.10;58.20;;;;;;5052622;28;20171;-61
2021/11/28 04:56:50;;;;;;;4.72;3.30;;;16.10;58.20;;;;;;5051601;28;20213;-61
2021/11/28 04:59:16;;;;;;;2.90;2.70;;;16.10;58.20;;;;;;5052580;28;20171;-62
2021/11/28 05:01:42;;;;;;;2.70;2.50;;;16.10;58.20;;;;;;5052158;28;20171;-59
2021/11/28 05:04:07;;;;;;;2.65;2.45;;;16.10;58.10;;;;;;5051830;28;20179;-60
2021/11/28 05:06:33;;;;;;;3.08;2.65;;;16.10;58.20;;;;;;5052138;28;20171;-64
2021/11/28 05:09:01;;;;;;;3.10;2.85;;;16.00;58.20;;;;;;5052168;28;20309;-59
2021/11/28 05:11:27;;;;;;;3.05;2.72;;;16.00;58.20;;;;;;5051195;28;20197;-60
2021/11/28 05:13:53;;;;;;;2.80;2.60;;;16.00;58.20;;;;;;5052165;28;20179;-60
2021/11/28 05:16:19;;;;;;;3.70;2.92;;;16.00;58.10;;;;;;5051503;28;20206;-60
2021/11/28 05:18:44;;;;;;;3.30;3.08;;;16.00;58.10;;;;;;5051826;28;20171;-60
2021/11/28 05:21:10;;;;;;;2.85;2.65;;;16.00;58.10;;;;;;5052126;28;20189;-60
2021/11/28 05:23:35;;;;;;;2.72;2.53;;;16.00;58.10;;;;;;5050868;28;20634;-61
2021/11/28 05:26:01;;;;;;;2.63;2.42;;;16.00;58.10;;;;;;5052199;28;20228;-59
2021/11/28 05:28:26;;;;;;;2.78;2.58;;;16.00;58.20;;;;;;5052281;28;20233;-61
2021/11/28 05:30:52;;;;;;;2.83;2.63;;;16.00;58.10;;;;;;5050854;28;20171;-60
2021/11/28 05:33:17;;;;;;;2.88;2.50;;;15.90;58.00;;;;;;5051843;28;20186;-61
2021/11/28 05:35:43;;;;;;;2.95;2.75;;;16.00;58.10;;;;;;5051577;28;20634;-61
2021/11/28 05:38:08;;;;;;;3.20;2.70;;;15.90;58.10;;;;;;5050851;28;20202;-59
2021/11/28 05:40:34;;;;;;;2.67;2.47;;;16.00;58.10;;;;;;5051736;28;20254;-61
2021/11/28 05:42:59;;;;;;;2.45;2.25;;;15.90;58.00;;;;;;5051793;28;20250;-60
2021/11/28 05:45:25;;;;;;;2.45;2.25;;;15.90;58.00;;;;;;5050916;28;20189;-59
2021/11/28 05:47:51;;;;;;;2.90;2.70;;;15.90;58.00;;;;;;5051245;28;20219;-60
2021/11/28 05:50:17;;;;;;;2.90;2.70;;;15.90;58.00;;;;;;5051635;28;20270;-59
2021/11/28 05:52:43;;;;;;;2.65;2.45;;;15.90;58.00;;;;;;5050695;28;20186;-60
2021/11/28 05:55:08;;;;;;;2.67;2.47;;;15.90;58.00;;;;;;5051678;28;20630;-60
2021/11/28 05:57:34;;;;;;;2.95;2.75;;;15.90;58.10;;;;;;5051414;28;20250;-62
2021/11/28 06:00:00;;;;;;;2.72;2.53;;;15.90;58.00;;;;;;5051094;28;20175;-62
2021/11/28 06:02:25;;;;;;;2.90;2.70;;;15.80;58.00;;;;;;5051522;28;20183;-62
2021/11/28 06:04:51;;;;;;;2.92;2.72;;;15.80;57.90;;;;;;5051369;28;20535;-61
2021/11/28 06:07:16;;;;;;;2.90;2.70;;;15.80;58.00;;;;;;5050800;28;20175;-59
2021/11/28 06:09:42;;;;;;;2.83;2.63;;;15.80;57.90;;;;;;5051282;28;20656;-60
2021/11/28 06:12:08;;;;;;;2.60;2.40;;;15.80;58.00;;;;;;5051721;28;20171;-61
2021/11/28 06:14:33;;;;;;;2.65;2.45;;;15.80;57.90;;;;;;5050752;28;20171;-60
2021/11/28 06:17:00;;;;;;;2.70;2.50;;;15.80;58.00;;;;;;5051504;28;20206;-61
2021/11/28 06:19:25;;;;;;;2.60;2.40;;;15.80;58.00;;;;;;5051459;28;20182;-61
2021/11/28 06:21:51;;;;;;;2.55;2.35;;;15.80;57.90;;;;;;5052499;28;20175;-60
2021/11/28 06:24:16;;;;;;;3.03;2.80;;;15.80;58.00;;;;;;5055669;28;20215;-61
2021/11/28 06:26:42;;;;;;;2.40;2.25;;;15.80;58.00;;;;;;5054700;28;20175;-61
2021/11/28 06:29:07;;;;;;;2.65;2.45;;;15.70;57.90;;;;;;5055262;28;20167;-61
2021/11/28 06:31:33;;;;;;;1.95;1.85;;;15.70;58.50;;;;;;5055078;28;20175;-61
2021/11/28 06:33:58;;;;;;;2.90;2.70;;;15.70;57.90;;;;;;5054511;28;20182;-61
2021/11/28 06:36:24;;;;;;;2.90;2.70;;;15.70;57.90;;;;;;5054967;28;20570;-60
2021/11/28 06:38:50;;;;;;;2.63;2.40;;;15.70;58.00;;;;;;5055035;28;20171;-61
2021/11/28 06:41:15;;;;;;;2.63;2.42;;;15.70;57.90;;;;;;5054634;28;20250;-60
2021/11/28 06:43:42;;;;;;;2.85;2.65;;;15.70;57.90;;;;;;5054904;28;20176;-60
2021/11/28 06:46:07;;;;;;;2.67;2.47;;;15.70;57.90;;;;;;5055238;28;20178;-60
2021/11/28 06:48:33;;;;;;;2.22;2.13;;;15.70;57.90;;;;;;5053777;28;20231;-60
2021/11/28 06:50:58;;;;;;;2.60;2.40;;;15.70;57.90;;;;;;5054930;28;20175;-60
2021/11/28 06:53:24;;;;;;;2.70;2.50;;;15.70;58.10;;;;;;5055119;28;20186;-60
2021/11/28 06:55:49;;;;;;;2.70;2.50;;;15.70;57.90;;;;;;5054311;28;20206;-60
2021/11/28 06:58:15;;;;;;;2.30;2.10;;;15.70;57.80;;;;;;5055174;28;20221;-61
2021/11/28 07:00:41;;;;;;;3.20;2.58;;;15.70;57.80;;;;;;5054808;28;20258;-62
2021/11/28 07:03:06;;;;;;;2.33;2.13;;;15.70;57.90;;;;;;5054236;28;20183;-60
2021/11/28 07:05:32;;;;;;;2.25;2.10;;;15.80;58.10;;;;;;5054548;28;20175;-61
2021/11/28 07:07:57;;;;;;;2.00;1.90;;;15.80;58.00;;;;;;5055022;28;20171;-60
2021/11/28 07:10:23;;;;;;;2.20;2.10;;;15.90;58.10;;;;;;5054252;28;20167;-61
2021/11/28 07:12:48;;;;;;;1.80;1.70;;;16.00;58.00;;;;;;5054541;28;20537;-60
2021/11/28 07:15:14;;;;;;;1.70;1.60;;;16.10;57.90;;;;;;5054624;28;20174;-60
2021/11/28 07:17:40;;;;;;;1.95;1.85;;;16.30;57.80;;;;;;5053337;28;20696;-60
2021/11/28 07:20:06;;;;;;;1.65;1.55;;;16.40;57.50;;;;;;5054570;28;20253;-61
2021/11/28 07:22:33;;;;;;;1.80;1.50;;;16.60;57.30;;;;;;5054455;28;20174;-61
2021/11/28 07:24:59;;;;;;;1.70;1.60;;;16.70;57.00;;;;;;5053706;28;20687;-61
2021/11/28 07:27:24;;;;;;;1.90;1.80;;;16.90;56.70;;;;;;5054663;28;20187;-60
2021/11/28 07:29:50;;;;;;;1.80;1.70;;;17.10;56.50;;;;;;5054350;28;20612;-61
2021/11/28 07:32:15;;;;;;;2.20;2.00;;;17.20;56.40;;;;;;5053124;28;20190;-60
2021/11/28 07:34:41;;;;;;;1.58;1.48;;;17.40;56.20;;;;;;5053548;28;20175;-60
2021/11/28 07:37:06;;;;;;;1.73;1.63;;;17.70;55.60;;;;;;5053795;28;20215;-60
2021/11/28 07:39:32;;;;;;;1.73;1.63;;;18.00;54.90;;;;;;5054022;28;20167;-60
2021/11/28 07:41:57;;;;;;;1.70;1.60;;;18.20;54.60;;;;;;5054521;28;20177;-60
2021/11/28 07:44:23;;;;;;;1.65;1.55;;;18.30;54.30;;;;;;5053862;28;20262;-61
2021/11/28 07:46:49;;;;;;;2.00;1.35;;;18.40;54.10;;;;;;5055305;28;20167;-61
2021/11/28 07:49:14;;;;;;;1.40;1.30;;;18.50;54.00;;;;;;5054923;28;20595;-61
2021/11/28 07:51:40;;;;;;;1.70;1.60;;;18.60;54.00;;;;;;5052735;28;20275;-61
2021/11/28 07:54:06;;;;;;;1.42;1.33;;;18.60;53.90;;;;;;5053701;28;20179;-65
2021/11/28 07:56:32;;;;;;;1.52;1.42;;;18.70;53.90;;;;;;5053456;28;20219;-65
2021/11/28 07:58:58;;;;;;;1.40;1.30;;;18.70;54.00;;;;;;5053017;28;20324;-65
2021/11/28 08:01:23;;;;;;;1.42;1.30;;;18.70;53.90;;;;;;5053669;28;20630;-65
2021/11/28 08:03:49;;;;;;;1.23;1.17;;;18.70;54.00;;;;;;5053082;28;20167;-66
2021/11/28 08:06:15;;;;;;;1.40;1.30;;;18.70;54.10;;;;;;5053141;28;20317;-67
2021/11/28 08:08:40;;;;;;;1.88;1.40;;;18.60;54.00;;;;;;5053372;28;20193;-65
2021/11/28 08:11:06;;;;;;;1.10;1.10;;;18.60;54.20;;;;;;5053314;28;20637;-65
2021/11/28 08:13:31;;;;;;;1.45;1.20;;;18.60;54.20;;;;;;5052231;28;20178;-64
2021/11/28 08:15:57;;;;;;;1.50;1.40;;;18.60;54.30;;;;;;5053330;28;20171;-64
2021/11/28 08:18:22;;;;;;;1.42;1.33;;;18.60;54.40;;;;;;5053156;28;20218;-64
2021/11/28 08:20:51;;;;;;;1.60;1.50;;;18.50;54.50;;;;;;5052429;28;20171;-65
2021/11/28 08:23:16;;;;;;;1.27;1.20;;;18.50;54.50;;;;;;5053544;28;20179;-64
2021/11/28 08:25:42;;;;;;;1.38;1.27;;;18.50;54.60;;;;;;5052755;28;20183;-64
2021/11/28 08:28:08;;;;;;;1.60;1.50;;;18.50;54.60;;;;;;5052701;28;20586;-64
2021/11/28 08:30:35;;;;;;;1.25;1.15;;;18.50;54.60;;;;;;5052923;28;20580;-63
2021/11/28 08:33:01;;;;;;;1.30;1.20;;;18.50;54.60;;;;;;5052965;28;20183;-65
2021/11/28 08:35:29;;;;;;;1.40;1.30;;;18.50;54.70;;;;;;5052335;28;20167;-65
2021/11/28 08:37:55;;;;;;;1.92;1.73;;;18.50;54.70;;;;;;5052967;28;20233;-64
2021/11/28 08:40:20;;;;;;;1.20;1.20;;;18.40;54.70;;;;;;5052379;28;20293;-65
2021/11/28 08:42:46;;;;;;;1.30;1.20;;;18.40;54.70;;;;;;5052306;28;20213;-65
2021/11/28 08:45:12;;;;;;;1.20;1.10;;;18.40;54.80;;;;;;5052570;28;20642;-65
2021/11/28 08:47:37;;;;;;;1.30;1.20;;;18.40;54.90;;;;;;5051451;28;20922;-64
2021/11/28 08:50:04;;;;;;;1.30;1.13;;;18.40;54.90;;;;;;5052867;28;20178;-64
2021/11/28 08:52:30;;;;;;;1.45;1.35;;;18.60;55.00;;;;;;5052358;28;20250;-65
2021/11/28 08:54:55;;;;;;;1.23;1.20;;;18.40;54.90;;;;;;5052133;28;20228;-64
2021/11/28 08:57:21;;;;;;;1.30;1.20;;;18.40;54.90;;;;;;5052496;28;20215;-66
2021/11/28 08:59:47;;;;;;;1.27;1.17;;;18.40;54.80;;;;;;5052105;28;20309;-65
2021/11/28 09:02:12;;;;;;;1.58;1.48;;;18.40;54.80;;;;;;5051789;28;20335;-65
2021/11/28 09:04:38;;;;;;;1.60;1.50;;;18.40;54.80;;;;;;5051901;28;20172;-71
2021/11/28 09:07:04;;;;;;;2.45;1.80;;;18.40;54.90;;;;;;5052431;28;20178;-66
2021/11/28 09:09:32;;;;;;;2.05;1.42;;;18.40;54.90;;;;;;5051433;28;20182;-65
2021/11/28 09:11:58;;;;;;;1.50;1.40;;;18.50;55.40;;;;;;5052237;28;20266;-66
2021/11/28 09:14:24;;;;;;;3.35;1.50;;;18.50;54.90;;;;;;5051679;28;20255;-65
2021/11/28 09:16:49;;;;;;;1.42;1.33;;;18.50;55.20;;;;;;5050529;28;20210;-66
2021/11/28 09:21:47;;;;;;;2.25;1.40;;;18.60;55.10;;;;;;5048792;28;20566;-66
2021/11/28 09:26:56;;;;;;;3.05;1.13;;;18.60;55.10;;;;;;5050298;28;20248;-65
2021/11/28 09:29:22;;;;;;;1.35;1.20;;;18.60;55.30;;;;;;5050482;28;20175;-66
2021/11/28 09:31:47;;;;;;;1.80;1.33;;;18.60;55.30;;;;;;5050873;28;20237;-66
2021/11/28 09:34:13;;;;;;;1.38;1.27;;;18.70;55.40;;;;;;5052003;28;20171;-66
2021/11/28 09:36:38;;;;;;;1.20;1.10;;;18.70;55.50;;;;;;5050811;28;20199;-65
2021/11/28 09:39:04;;;;;;;1.17;1.00;;;18.60;55.50;;;;;;5051844;28;20202;-65
2021/11/28 09:41:33;;;;;;;1.45;1.35;;;18.70;55.60;;;;;;5051654;28;20174;-65
2021/11/28 09:43:58;;;;;;;2.53;1.10;;;18.70;55.50;;;;;;5051080;28;20246;-66
2021/11/28 09:46:25;;;;;;;2.20;1.23;;;18.60;55.60;;;;;;5050467;28;20258;-66
2021/11/28 09:49:01;;;;;;;1.50;1.40;;;18.60;55.80;;;;;;5051302;28;20321;-64
2021/11/28 09:51:27;;;;;;;1.45;1.17;;;18.50;56.10;;;;;;5051426;28;20174;-65
2021/11/28 09:53:54;;;;;;;1.30;1.20;;;18.40;56.20;;;;;;5053125;28;20171;-66
2021/11/28 09:56:20;;;;;;;1.10;1.00;;;18.40;56.40;;;;;;5050538;28;20179;-67
2021/11/28 09:58:46;;;;;;;1.77;1.20;;;18.30;56.50;;;;;;5049905;28;20182;-64
2021/11/28 10:01:11;;;;;;;2.03;1.60;;;18.20;56.60;;;;;;5051946;28;20179;-65
2021/11/28 10:03:37;;;;;;;1.88;1.60;;;18.10;56.50;;;;;;5051832;28;20677;-64
2021/11/28 10:06:02;;;;;;;3.38;2.00;;;18.10;56.50;;;;;;5049802;28;20580;-65
2021/11/28 10:08:28;;;;;;;2.70;1.70;;;18.10;56.60;;;;;;5051940;28;20206;-65
2021/11/28 10:11:17;;;;;;;1.85;1.73;;;18.10;57.20;;;;;;5051568;28;20179;-64
2021/11/28 10:13:44;;;;;;;2.13;1.42;;;18.10;56.80;;;;;;5051163;28;20186;-64
2021/11/28 10:16:09;;;;;;;1.63;1.30;;;18.00;56.90;;;;;;5051589;28;20175;-65
2021/11/28 10:18:36;;;;;;;1.67;1.20;;;18.00;56.90;;;;;;5051560;28;20634;-63
2021/11/28 10:21:01;;;;;;;2.63;1.50;;;17.90;57.10;;;;;;5050971;28;20179;-65
2021/11/28 10:23:27;;;;;;;2.33;1.10;;;17.90;57.30;;;;;;5051711;28;20186;-64
2021/11/28 10:25:59;;;;;;;1.58;1.25;;;17.80;57.40;;;;;;5049766;28;20172;-63
2021/11/28 10:28:24;;;;;;;2.95;1.30;;;17.80;57.50;;;;;;5050230;28;20237;-63
2021/11/28 10:30:50;;;;;;;2.72;1.27;;;17.80;58.00;;;;;;5051224;28;20182;-65
2021/11/28 10:33:18;;;;;;;1.50;1.40;;;17.80;57.50;;;;;;5050673;28;20183;-65
2021/11/28 10:36:13;;;;;;;2.78;1.40;;;17.80;57.50;;;;;;5049719;28;20183;-64
2021/11/28 10:38:40;;;;;;;1.50;1.40;;;17.80;57.60;;;;;;5045215;28;20195;-64
2021/11/28 10:41:23;;;;;;;3.88;1.88;;;17.70;57.60;;;;;;5050689;28;20214;-65
2021/11/28 10:43:48;;;;;;;5.68;1.30;;;17.70;57.70;;;;;;5050946;28;20290;-64
2021/11/28 10:46:24;;;;;;;2.58;1.38;;;17.70;57.70;;;;;;5051004;28;20693;-65
2021/11/28 10:49:03;;;;;;;2.38;1.30;;;17.60;57.80;;;;;;5050180;28;20226;-64
2021/11/28 10:51:29;;;;;;;2.97;1.42;;;17.70;57.90;;;;;;5051041;28;20270;-63
2021/11/28 10:53:57;;;;;;;1.70;1.42;;;17.60;57.90;;;;;;5050591;28;20265;-64
2021/11/28 10:56:22;;;;;;;2.25;1.15;;;17.60;57.90;;;;;;5051156;28;20179;-64
2021/11/28 10:58:49;;;;;;;4.85;1.73;;;17.60;57.90;;;;;;5050775;28;20179;-66
2021/11/28 11:01:15;;;;;;;3.55;1.50;;;17.60;58.00;;;;;;5050741;28;20167;-64
2021/11/28 11:03:52;;;;;;;2.45;1.33;;;17.60;58.00;;;;;;5051208;28;20175;-64
2021/11/28 11:06:26;;;;;;;1.88;1.23;;;17.60;58.00;;;;;;5051377;28;20447;-65
2021/11/28 11:08:55;;;;;;;1.35;1.23;;;17.60;58.00;;;;;;5051989;28;20176;-64
2021/11/28 11:11:21;;;;;;;2.45;1.40;;;17.60;57.90;;;;;;5053250;28;20187;-67
2021/11/28 11:14:03;;;;;;;3.33;1.25;;;17.50;57.90;;;;;;5054232;28;20175;-69
2021/11/28 11:16:36;;;;;;;3.25;1.58;;;17.60;58.00;;;;;;5053841;28;20206;-69
2021/11/28 11:19:36;;;;;;;4.07;1.45;;;17.60;58.00;;;;;;5054396;28;20183;-69
2021/11/28 11:22:05;;;;;;;4.35;1.60;;;17.50;57.90;;;;;;5054246;28;20277;-68
2021/11/28 11:24:33;;;;;;;2.10;1.35;;;17.60;57.90;;;;;;5054347;28;20171;-68
2021/11/28 11:27:29;;;;;;;1.08;0.88;;;17.60;57.90;;;;;;5054469;28;20541;-67
2021/11/28 11:30:05;;;;;;;4.18;1.15;;;17.70;57.80;;;;;;5053228;28;20191;-68
2021/11/28 11:32:42;;;;;;;2.80;1.20;;;17.70;57.70;;;;;;5054079;28;20194;-68
2021/11/28 11:35:13;;;;;;;2.45;1.42;;;17.70;57.60;;;;;;5054226;28;20185;-68
2021/11/28 11:37:39;;;;;;;2.03;1.08;;;17.70;57.60;;;;;;5053027;28;20215;-68
2021/11/28 11:40:09;;;;;;;2.58;1.60;;;17.70;57.70;;;;;;5054320;28;20202;-68
2021/11/28 11:42:36;;;;;;;3.00;1.38;;;17.60;57.90;;;;;;5053794;28;20179;-69
2021/11/28 11:45:01;;;;;;;4.82;1.50;;;17.60;57.90;;;;;;5053543;28;20202;-69
2021/11/28 11:47:27;;;;;;;3.70;1.00;;;17.60;58.00;;;;;;5054130;28;20179;-64
2021/11/28 11:49:52;;;;;;;1.95;1.13;;;17.60;58.00;;;;;;5053816;28;20194;-68
2021/11/28 11:52:18;;;;;;;1.85;1.20;;;17.60;58.10;;;;;;5053506;28;20179;-69
2021/11/28 11:54:51;;;;;;;2.15;1.30;;;17.60;58.00;;;;;;5053672;28;20171;-64
2021/11/28 11:57:22;;;;;;;2.53;1.02;;;17.70;58.10;;;;;;5052818;28;20225;-66
2021/11/28 11:59:58;;;;;;;4.47;1.60;;;17.70;57.90;;;;;;5053617;28;20536;-67
2021/11/28 12:02:44;;;;;;;4.63;1.65;;;17.60;58.10;;;;;;5052509;28;20551;-68
2021/11/28 12:05:30;;;;;;;4.57;1.70;;;17.60;58.00;;;;;;5053068;28;20179;-68
2021/11/28 12:07:57;;;;;;;2.70;1.70;;;17.70;57.90;;;;;;5053875;28;20265;-68
2021/11/28 12:10:29;;;;;;;2.75;1.40;;;17.70;57.90;;;;;;5053550;28;20629;-67
2021/11/28 12:12:56;;;;;;;4.70;1.20;;;17.70;57.90;;;;;;5053032;28;20183;-69
2021/11/28 12:15:23;;;;;;;7.45;1.27;;;17.80;58.00;;;;;;5053505;28;20175;-68
2021/11/28 12:17:51;;;;;;;3.25;1.50;;;17.80;57.90;;;;;;5053021;28;20246;-67
2021/11/28 12:20:16;;;;;;;2.70;1.40;;;18.00;57.80;;;;;;5052544;28;20159;-67
2021/11/28 12:22:45;;;;;;;3.25;1.15;;;18.10;57.50;;;;;;5052540;28;20179;-66
2021/11/28 12:25:39;;;;;;;6.72;1.48;;;18.40;57.10;;;;;;5052695;28;20175;-66
2021/11/28 12:28:20;;;;;;;3.92;1.55;;;18.60;56.40;;;;;;5050163;28;20504;-65
2021/11/28 12:30:56;;;;;;;1.50;1.05;;;18.90;56.00;;;;;;5050930;28;20238;-66
2021/11/28 12:33:53;;;;;;;2.15;1.02;;;19.00;55.70;;;;;;5050013;28;20174;-68
2021/11/28 12:36:39;;;;;;;1.25;1.15;;;19.20;55.40;;;;;;5050733;28;20167;-67
2021/11/28 12:39:11;;;;;;;1.92;1.00;;;19.20;55.20;;;;;;5050914;28;20197;-67
2021/11/28 12:41:51;;;;;;;2.95;1.15;;;19.40;55.10;;;;;;5049006;28;20175;-66
2021/11/28 12:44:22;;;;;;;1.95;1.10;;;19.40;54.90;;;;;;5050005;28;20174;-67
2021/11/28 12:47:16;;;;;;;1.45;0.95;;;19.50;54.90;;;;;;5051367;28;20662;-66
2021/11/28 12:49:43;;;;;;;2.67;1.30;;;19.50;54.90;;;;;;5050927;28;20318;-66
2021/11/28 12:52:17;;;;;;;2.10;1.05;;;19.50;54.90;;;;;;5052024;28;20516;-66
2021/11/28 12:55:07;;;;;;;2.83;0.90;;;19.50;55.10;;;;;;5051378;28;20189;-66
2021/11/28 12:57:34;;;;;;;2.35;1.05;;;19.40;55.10;;;;;;5052075;28;20596;-67
2021/11/28 13:00:25;;;;;;;2.15;1.00;;;19.40;55.30;;;;;;5052824;28;20175;-67